Time;durP1;ratioP1;P1;durP2;ratioP2;P2;SDS_P1;SDS_P2;PMS_P1;PMS_P2;Temp;Humidity;BMP_temperature;BMP_pressure;BME280_temperature;BME280_humidity;BME280_pressure;Samples;Min_cycle;Max_cycle;Signal;HPM_P1;HPM_P2
2024/01/22 00:02:13;;;;;;;9.70;5.38;;;;;;;5.94;100.00;100745.53;5060155;28;20137;-78
2024/01/22 00:04:39;;;;;;;11.73;5.18;;;;;;;5.82;100.00;100746.47;5054621;28;20053;-79
2024/01/22 00:07:06;;;;;;;7.78;4.57;;;;;;;5.90;100.00;100744.13;5057929;28;20076;-79
2024/01/22 00:09:34;;;;;;;8.55;5.18;;;;;;;5.97;100.00;100744.47;5058101;28;20144;-79
2024/01/22 00:12:06;;;;;;;8.65;4.95;;;;;;;5.85;100.00;100735.84;5066747;28;20088;-80
2024/01/22 00:14:33;;;;;;;7.80;4.90;;;;;;;5.74;100.00;100719.47;5058875;28;20045;-79
2024/01/22 00:17:06;;;;;;;8.27;5.28;;;;;;;5.73;100.00;100717.81;5060742;28;20065;-79
2024/01/22 00:19:37;;;;;;;7.22;4.80;;;;;;;5.67;100.00;100725.16;5057713;28;20080;-79
2024/01/22 00:22:04;;;;;;;7.05;5.20;;;;;;;5.68;100.00;100711.22;5058511;28;20523;-79
2024/01/22 00:24:30;;;;;;;9.07;5.25;;;;;;;5.65;100.00;100714.09;5075862;28;20135;-78
2024/01/22 00:26:58;;;;;;;11.32;5.05;;;;;;;5.82;100.00;100714.50;5062072;28;20104;-79
2024/01/22 00:29:27;;;;;;;10.32;5.30;;;;;;;5.83;100.00;100713.53;5062548;28;20045;-79
2024/01/22 00:31:53;;;;;;;7.40;5.00;;;;;;;5.65;100.00;100671.72;5060207;28;20109;-78
2024/01/22 00:34:20;;;;;;;10.57;5.25;;;;;;;5.97;100.00;100687.31;5064676;28;20414;-79
2024/01/22 00:36:47;;;;;;;10.32;5.25;;;;;;;6.14;100.00;100688.56;5065776;28;20041;-79
2024/01/22 00:39:13;;;;;;;6.78;4.40;;;;;;;6.20;100.00;100688.84;5057053;28;20074;-81
2024/01/22 00:41:40;;;;;;;7.50;4.55;;;;;;;6.24;100.00;100666.84;5065838;28;20040;-79
2024/01/22 00:44:08;;;;;;;8.57;4.82;;;;;;;6.29;100.00;100675.09;5058649;28;20127;-79
2024/01/22 00:46:35;;;;;;;6.50;4.47;;;;;;;6.26;100.00;100667.56;5059759;28;20494;-79
2024/01/22 00:49:02;;;;;;;7.03;4.70;;;;;;;6.26;100.00;100653.72;5060305;28;20084;-80
2024/01/22 00:51:28;;;;;;;8.32;4.65;;;;;;;6.28;100.00;100642.25;5069398;28;20072;-80
2024/01/22 00:53:56;;;;;;;9.23;4.40;;;;;;;6.32;100.00;100641.06;5069839;28;20136;-80
2024/01/22 00:56:23;;;;;;;6.35;4.03;;;;;;;6.28;100.00;100623.25;5069754;28;20044;-80
2024/01/22 00:58:50;;;;;;;8.57;4.60;;;;;;;6.31;100.00;100616.03;5070035;28;20052;-80
2024/01/22 01:01:20;;;;;;;6.85;4.35;;;;;;;6.47;100.00;100596.53;5063797;28;20108;-80
2024/01/22 01:03:47;;;;;;;5.95;4.00;;;;;;;6.59;100.00;100600.69;5071174;28;20448;-79
2024/01/22 01:06:14;;;;;;;6.97;4.22;;;;;;;6.58;100.00;100597.28;5061422;28;20053;-78
2024/01/22 01:08:41;;;;;;;4.38;3.85;;;;;;;6.59;100.00;100572.09;5061775;28;20384;-78
2024/01/22 01:11:07;;;;;;;5.57;3.95;;;;;;;6.57;100.00;100571.41;5061480;28;20049;-79
2024/01/22 01:13:34;;;;;;;8.82;5.30;;;;;;;6.64;100.00;100560.31;5061294;28;20128;-79
2024/01/22 01:16:01;;;;;;;5.22;3.80;;;;;;;6.68;100.00;100560.88;5060358;28;20073;-78
2024/01/22 01:18:29;;;;;;;6.03;4.15;;;;;;;6.77;100.00;100546.28;5060282;28;20131;-80
2024/01/22 01:20:55;;;;;;;9.00;4.20;;;;;;;6.70;100.00;100532.16;5059658;28;20117;-79
2024/01/22 01:23:22;;;;;;;5.80;3.63;;;;;;;6.79;100.00;100518.34;5059805;28;20055;-80
2024/01/22 01:25:49;;;;;;;6.57;3.70;;;;;;;6.96;100.00;100523.72;5059135;28;20081;-79
2024/01/22 01:28:16;;;;;;;5.68;3.53;;;;;;;7.03;100.00;100497.16;5060711;28;20045;-79
2024/01/22 01:30:42;;;;;;;6.57;4.07;;;;;;;6.95;100.00;100516.88;5070081;28;20053;-79
2024/01/22 01:33:09;;;;;;;6.43;3.60;;;;;;;7.06;100.00;100520.31;5060591;28;20087;-78
2024/01/22 01:35:37;;;;;;;6.00;3.67;;;;;;;7.13;100.00;100508.38;5060300;28;20083;-79
2024/01/22 01:38:04;;;;;;;4.93;3.55;;;;;;;7.18;100.00;100514.00;5060506;28;20049;-79
2024/01/22 01:40:30;;;;;;;5.00;3.40;;;;;;;7.18;100.00;100501.81;5060789;28;20480;-80
2024/01/22 01:42:57;;;;;;;5.18;4.00;;;;;;;7.19;100.00;100487.84;5060976;28;20072;-79
2024/01/22 01:45:23;;;;;;;5.43;3.80;;;;;;;7.30;99.83;100486.88;5059971;28;20128;-79
2024/01/22 01:47:52;;;;;;;5.82;3.47;;;;;;;7.34;99.50;100475.22;5061193;28;20084;-79
2024/01/22 01:50:18;;;;;;;6.40;3.78;;;;;;;7.31;99.27;100452.91;5069185;28;20045;-80
2024/01/22 01:52:47;;;;;;;5.80;3.50;;;;;;;7.44;99.30;100443.97;5070922;28;20084;-82
2024/01/22 01:55:13;;;;;;;6.53;3.45;;;;;;;7.39;99.63;100428.78;5061852;28;20553;-79
2024/01/22 01:57:40;;;;;;;6.35;3.70;;;;;;;7.41;99.36;100447.69;5069309;28;20135;-79
2024/01/22 02:00:09;;;;;;;6.38;3.33;;;;;;;7.50;99.37;100440.81;5061401;28;20075;-80
2024/01/22 02:02:38;;;;;;;7.03;3.47;;;;;;;7.49;99.47;100428.78;5077946;28;20094;-80
2024/01/22 02:05:06;;;;;;;5.22;3.50;;;;;;;7.44;99.23;100421.38;5061796;28;20049;-80
2024/01/22 02:07:32;;;;;;;4.65;3.10;;;;;;;7.44;98.96;100395.34;5069191;28;20071;-80
2024/01/22 02:10:00;;;;;;;4.50;3.33;;;;;;;7.49;98.86;100419.19;5069241;28;20088;-79
2024/01/22 02:12:27;;;;;;;7.28;3.72;;;;;;;7.48;98.91;100401.09;5060052;28;20137;-80
2024/01/22 02:14:54;;;;;;;4.13;3.17;;;;;;;7.41;98.81;100429.47;5060843;28;20084;-80
2024/01/22 02:17:20;;;;;;;4.15;3.03;;;;;;;7.32;98.70;100469.34;5069024;28;20055;-79
2024/01/22 02:19:49;;;;;;;5.57;3.42;;;;;;;7.41;98.98;100489.34;5064646;28;20048;-78
2024/01/22 02:22:16;;;;;;;4.70;3.25;;;;;;;7.52;98.99;100501.38;5065366;28;20045;-79
2024/01/22 02:24:44;;;;;;;4.50;3.20;;;;;;;7.43;98.74;100507.44;5074750;28;20067;-79
2024/01/22 02:27:11;;;;;;;4.60;3.35;;;;;;;7.32;98.96;100497.97;5083093;28;20048;-80
2024/01/22 02:29:38;;;;;;;3.95;3.10;;;;;;;7.40;98.92;100492.09;5083081;28;20043;-79
2024/01/22 02:32:05;;;;;;;4.85;3.25;;;;;;;7.44;99.13;100496.88;5062155;28;20472;-79
2024/01/22 02:34:31;;;;;;;3.75;2.90;;;;;;;7.53;99.06;100475.22;5082527;23;20073;-82
2024/01/22 02:36:58;;;;;;;4.78;2.97;;;;;;;7.68;98.97;100456.53;5040341;28;20260;-82
2024/01/22 02:39:25;;;;;;;4.22;3.17;;;;;;;7.59;98.64;100427.75;5045160;28;20118;-82
2024/01/22 02:41:53;;;;;;;4.57;3.10;;;;;;;7.66;98.78;100415.81;5043424;28;20190;-81
2024/01/22 02:44:19;;;;;;;5.72;3.42;;;;;;;7.69;98.65;100403.47;5048423;28;20119;-82
2024/01/22 02:46:46;;;;;;;8.52;3.10;;;;;;;7.73;98.79;100394.41;5039502;28;20076;-81
2024/01/22 02:49:13;;;;;;;3.08;2.72;;;;;;;7.77;98.66;100416.59;5049362;28;20543;-84
2024/01/22 02:51:43;;;;;;;5.68;2.90;;;;;;;7.82;98.50;100398.75;5053455;28;20112;-82
2024/01/22 02:54:09;;;;;;;3.63;2.83;;;;;;;7.77;98.53;100393.16;5046589;28;20080;-83
2024/01/22 02:56:36;;;;;;;4.38;2.90;;;;;;;7.69;98.44;100377.44;5039475;28;20103;-82
2024/01/22 02:59:04;;;;;;;4.10;2.80;;;;;;;7.72;98.63;100379.75;5050588;28;20565;-84
2024/01/22 03:01:31;;;;;;;6.38;2.97;;;;;;;7.78;98.68;100377.38;5045130;28;20053;-83
2024/01/22 03:03:57;;;;;;;4.03;3.08;;;;;;;7.88;98.82;100356.50;5047809;28;20113;-85
2024/01/22 03:06:24;;;;;;;5.35;3.20;;;;;;;7.97;98.67;100355.63;5039362;28;20088;-82
2024/01/22 03:08:50;;;;;;;4.80;2.88;;;;;;;7.95;98.77;100352.34;5040743;28;20065;-83
2024/01/22 03:11:18;;;;;;;3.97;3.08;;;;;;;7.98;98.62;100363.31;5037841;28;20208;-83
2024/01/22 03:13:44;;;;;;;5.03;3.28;;;;;;;7.93;98.76;100355.13;5037453;28;20136;-83
2024/01/22 03:16:12;;;;;;;3.65;2.80;;;;;;;7.98;99.12;100357.28;5037756;28;20109;-83
2024/01/22 03:18:39;;;;;;;4.75;3.05;;;;;;;7.98;99.00;100372.91;5046301;28;20076;-83
2024/01/22 03:21:05;;;;;;;5.22;3.95;;;;;;;7.95;98.95;100373.19;5042874;28;20085;-83
2024/01/22 03:23:32;;;;;;;3.45;2.78;;;;;;;7.95;99.36;100362.78;5049118;28;20095;-82
2024/01/22 03:25:59;;;;;;;5.07;3.17;;;;;;;8.05;99.50;100371.34;5037477;28;20177;-83
2024/01/22 03:28:25;;;;;;;4.75;2.97;;;;;;;8.09;99.23;100382.28;5046449;28;20105;-82
2024/01/22 03:30:52;;;;;;;3.50;2.80;;;;;;;8.05;99.48;100375.72;5037689;28;20140;-83
2024/01/22 03:33:20;;;;;;;4.80;3.17;;;;;;;8.15;99.57;100385.13;5044671;28;20132;-82
2024/01/22 03:35:46;;;;;;;4.22;2.90;;;;;;;8.14;99.40;100378.28;5045368;28;20141;-82
2024/01/22 03:38:14;;;;;;;5.78;3.05;;;;;;;8.19;99.36;100362.22;5038360;28;20049;-83
2024/01/22 03:40:40;;;;;;;4.55;3.00;;;;;;;8.08;98.78;100355.41;5038009;28;20069;-82
2024/01/22 03:43:07;;;;;;;3.67;2.83;;;;;;;8.01;99.12;100346.56;5039292;28;20105;-83
2024/01/22 03:45:33;;;;;;;4.35;2.88;;;;;;;7.98;99.08;100333.84;5055956;28;20466;-83
2024/01/22 03:48:00;;;;;;;3.30;2.60;;;;;;;7.96;99.45;100325.34;5039496;28;20104;-83
2024/01/22 03:50:28;;;;;;;3.67;2.88;;;;;;;7.94;99.58;100340.31;5039737;28;20247;-83
2024/01/22 03:52:54;;;;;;;4.72;2.30;;;;;;;7.90;99.58;100326.75;5049101;28;20113;-83
2024/01/22 03:55:21;;;;;;;3.97;2.53;;;;;;;7.89;99.54;100327.72;5042577;28;20129;-83
2024/01/22 03:57:48;;;;;;;3.45;2.60;;;;;;;7.92;100.00;100316.19;5045476;28;20213;-83
2024/01/22 04:00:15;;;;;;;5.03;2.97;;;;;;;7.93;100.00;100303.00;5043971;28;20131;-86
2024/01/22 04:02:41;;;;;;;4.95;2.80;;;;;;;7.95;100.00;100300.25;5043974;28;20100;-84
2024/01/22 04:05:09;;;;;;;2.72;2.30;;;;;;;8.04;100.00;100307.16;5044404;28;20080;-82
2024/01/22 04:07:39;;;;;;;2.10;1.90;;;;;;;8.16;100.00;100310.38;5044064;28;20309;-83
2024/01/22 04:10:08;;;;;;;3.28;2.22;;;;;;;8.14;100.00;100297.50;5041795;28;20057;-84
2024/01/22 04:12:34;;;;;;;5.35;2.35;;;;;;;8.07;100.00;100293.84;5040365;28;20516;-84
2024/01/22 04:15:01;;;;;;;4.45;2.45;;;;;;;8.04;100.00;100286.31;5045580;28;20576;-85
2024/01/22 04:17:28;;;;;;;4.10;2.28;;;;;;;8.14;100.00;100278.44;5046162;28;20100;-84
2024/01/22 04:19:54;;;;;;;4.05;2.15;;;;;;;8.14;100.00;100281.84;5040645;28;20159;-83
2024/01/22 04:22:21;;;;;;;3.60;2.10;;;;;;;8.24;100.00;100272.19;5040968;28;20135;-83
2024/01/22 04:24:49;;;;;;;3.40;2.10;;;;;;;8.38;100.00;100262.22;5050700;28;20045;-84
2024/01/22 04:27:15;;;;;;;6.32;2.20;;;;;;;8.46;100.00;100264.91;5052009;28;20069;-85
2024/01/22 04:29:42;;;;;;;3.03;2.13;;;;;;;8.55;100.00;100261.38;5042346;28;20076;-82
2024/01/22 04:32:08;;;;;;;2.60;2.25;;;;;;;8.47;100.00;100249.13;5041652;28;20077;-83
2024/01/22 04:34:37;;;;;;;3.17;2.40;;;;;;;8.35;100.00;100242.50;5041782;28;20137;-82
2024/01/22 04:37:05;;;;;;;2.53;2.25;;;;;;;8.34;100.00;100245.25;5046527;28;20045;-85
2024/01/22 04:39:31;;;;;;;4.25;2.55;;;;;;;8.33;100.00;100254.88;5042745;28;20052;-84
2024/01/22 04:41:59;;;;;;;4.38;2.40;;;;;;;8.28;100.00;100239.63;5057666;28;20132;-84
2024/01/22 04:44:28;;;;;;;2.58;2.03;;;;;;;8.18;100.00;100238.91;5052087;28;20099;-84
2024/01/22 04:46:57;;;;;;;3.97;2.47;;;;;;;8.21;100.00;100228.16;5046076;28;20045;-84
2024/01/22 04:49:25;;;;;;;3.38;2.33;;;;;;;8.26;100.00;100233.75;5045660;28;20069;-85
2024/01/22 04:51:52;;;;;;;2.60;1.88;;;;;;;8.23;100.00;100221.03;5050326;28;20092;-84
2024/01/22 04:54:20;;;;;;;2.90;2.25;;;;;;;8.27;100.00;100219.75;5048105;28;20053;-84
2024/01/22 04:56:47;;;;;;;3.05;2.40;;;;;;;8.25;100.00;100192.19;5041640;28;20124;-84
2024/01/22 04:59:15;;;;;;;3.25;2.33;;;;;;;8.20;100.00;100204.88;5040892;28;20076;-84
2024/01/22 05:01:42;;;;;;;4.13;2.58;;;;;;;8.18;100.00;100217.22;5041067;28;20045;-83
2024/01/22 05:04:09;;;;;;;4.68;2.65;;;;;;;8.19;100.00;100227.50;5046313;28;20057;-83
2024/01/22 05:06:36;;;;;;;3.58;2.60;;;;;;;8.18;100.00;100212.84;5043575;28;20561;-84
2024/01/22 05:09:04;;;;;;;5.28;2.50;;;;;;;8.27;100.00;100218.94;5048469;28;20053;-84
2024/01/22 05:11:31;;;;;;;2.78;2.47;;;;;;;8.26;100.00;100212.09;5049320;28;20053;-84
2024/01/22 05:13:58;;;;;;;5.07;2.45;;;;;;;8.25;100.00;100213.88;5049205;28;20053;-83
2024/01/22 05:16:27;;;;;;;4.03;2.65;;;;;;;8.23;100.00;100213.19;5041236;28;20053;-84
2024/01/22 05:18:54;;;;;;;5.70;2.90;;;;;;;8.32;100.00;100209.72;5040649;28;20081;-83
2024/01/22 05:21:21;;;;;;;3.28;2.38;;;;;;;8.38;100.00;100202.28;5047679;28;20059;-85
2024/01/22 05:23:49;;;;;;;4.65;2.80;;;;;;;8.45;100.00;100198.09;5043779;28;20050;-85
2024/01/22 05:26:15;;;;;;;3.08;2.67;;;;;;;8.38;100.00;100191.84;5042621;28;20124;-84
2024/01/22 05:28:42;;;;;;;4.47;2.40;;;;;;;8.57;100.00;100202.88;5050004;28;20052;-83
2024/01/22 05:31:08;;;;;;;4.85;2.83;;;;;;;8.63;100.00;100198.84;5044259;28;20053;-85
2024/01/22 05:33:36;;;;;;;4.85;2.85;;;;;;;8.61;100.00;100193.78;5050190;28;20127;-83
2024/01/22 05:36:06;;;;;;;4.10;2.38;;;;;;;8.69;100.00;100200.00;5039733;28;20120;-83
2024/01/22 05:38:32;;;;;;;2.72;1.95;;;;;;;8.83;100.00;100202.88;5056463;28;20052;-82
2024/01/22 05:40:59;;;;;;;2.47;1.58;;;;;;;8.94;100.00;100205.22;5044770;28;20107;-84
2024/01/22 05:43:26;;;;;;;4.07;2.20;;;;;;;8.99;100.00;100212.56;5044132;28;20437;-83
2024/01/22 05:45:52;;;;;;;2.60;2.35;;;;;;;9.18;100.00;100219.34;5051160;28;20132;-83
2024/01/22 05:48:21;;;;;;;2.92;2.22;;;;;;;9.32;100.00;100208.31;5052099;28;20495;-85
2024/01/22 05:50:50;;;;;;;1.83;1.65;;;;;;;9.42;100.00;100203.78;5048904;28;20121;-83
2024/01/22 05:53:20;;;;;;;3.25;2.00;;;;;;;9.37;100.00;100187.75;5041210;28;20049;-84
2024/01/22 05:55:47;;;;;;;2.50;1.90;;;;;;;9.47;100.00;100170.13;5050412;28;20469;-83
2024/01/22 05:58:16;;;;;;;2.20;1.38;;;;;;;9.68;100.00;100171.50;5051563;28;20049;-83
2024/01/22 06:00:43;;;;;;;1.38;1.25;;;;;;;9.68;100.00;100164.47;5049405;28;20155;-84
2024/01/22 06:03:19;;;;;;;3.38;1.20;;;;;;;10.07;100.00;100162.03;5044025;28;20053;-85
2024/01/22 06:05:53;;;;;;;2.05;1.40;;;;;;;10.03;100.00;100163.34;5053146;28;20099;-84
2024/01/22 06:08:19;;;;;;;1.65;1.55;;;;;;;10.01;100.00;100167.91;5052578;28;20041;-85
2024/01/22 06:10:50;;;;;;;2.03;1.27;;;;;;;10.12;100.00;100175.44;5045846;28;20161;-83
2024/01/22 06:13:50;;;;;;;1.58;1.10;;;;;;;10.03;99.84;100150.25;5037884;28;20073;-82
2024/01/22 06:42:09;;;;;;;5.78;4.15;;;;;;;10.28;98.26;100157.16;910771;26;20992;-83
2024/01/22 06:45:20;;;;;;;2.83;2.17;;;;;;;10.26;98.44;100140.00;5053277;28;20053;-83
2024/01/22 06:48:03;;;;;;;3.92;3.05;;;;;;;10.33;98.26;100132.31;5051123;28;20473;-82
2024/01/22 06:51:29;;;;;;;1.95;1.75;;;;;;;10.51;98.16;100138.94;5049061;28;20052;-82
2024/01/22 06:57:53;;;;;;;1.27;1.17;;;;;;;10.44;97.54;100145.00;5050937;28;20053;-84
2024/01/22 07:04:36;;;;;;;;;;;;;;;;;;;;;
2024/01/22 07:11:17;;;;;;;1.70;1.60;;;;;;;10.62;97.06;100145.63;5038299;28;20114;-85
2024/01/22 07:17:33;;;;;;;2.08;1.40;;;;;;;10.58;97.19;100145.16;5001949;28;20088;-83
2024/01/22 07:20:33;;;;;;;;;;;;;;;;;;;;;
2024/01/22 07:23:25;;;;;;;2.30;1.58;;;;;;;10.61;97.15;100149.22;5046256;28;20132;-85
2024/01/22 07:36:29;;;;;;;1.30;1.05;;;;;;;10.90;96.85;100185.28;5014872;28;20065;-82
2024/01/22 07:43:05;;;;;;;1.40;1.20;;;;;;;10.80;96.91;100177.63;4958169;29;20047;-84
2024/01/22 07:46:44;;;;;;;;;;;;;;;;;;;;;
2024/01/22 07:49:39;;;;;;;1.98;1.42;;;;;;;10.96;97.34;100201.13;4952689;28;20111;-84
2024/01/22 08:01:45;;;;;;;2.83;1.30;;;;;;;10.84;99.58;100207.72;4915823;28;20070;-82
2024/01/22 08:04:12;;;;;;;1.75;1.35;;;;;;;10.80;100.00;100227.38;5029820;28;20099;-84
2024/01/22 08:06:40;;;;;;;1.98;1.30;;;;;;;10.88;100.00;100224.72;5024503;28;20136;-84
2024/01/22 08:09:11;;;;;;;1.48;1.38;;;;;;;10.79;100.00;100207.41;5032604;28;20148;-83
2024/01/22 08:11:41;;;;;;;1.23;1.10;;;;;;;10.88;100.00;100202.94;5028668;28;20050;-82
2024/01/22 08:14:08;;;;;;;1.67;0.98;;;;;;;10.79;100.00;100210.03;5032022;28;20069;-83
2024/01/22 08:16:34;;;;;;;1.20;1.10;;;;;;;10.92;100.00;100219.94;5024924;28;20077;-84
2024/01/22 08:19:01;;;;;;;2.72;1.38;;;;;;;10.86;99.75;100205.75;5033015;28;20096;-83
2024/01/22 08:21:30;;;;;;;1.67;1.20;;;;;;;10.94;99.35;100217.97;5029516;28;20412;-84
2024/01/22 08:23:58;;;;;;;2.00;1.42;;;;;;;10.95;99.35;100203.91;5028129;28;20060;-83
2024/01/22 08:29:39;;;;;;;2.47;1.10;;;;;;;11.27;98.18;100197.75;4993703;28;20034;-83
2024/01/22 08:32:56;;;;;;;;;;;;;;;;;;;;;
2024/01/22 08:38:51;;;;;;;2.55;1.10;;;;;;;10.91;98.98;100172.03;5020072;28;20072;-83
2024/01/22 08:42:16;;;;;;;;;;;;;;;;;;;;;
2024/01/22 08:45:41;;;;;;;;;;;;;;;;;;;;;
2024/01/22 08:48:30;;;;;;;2.33;1.13;;;;;;;11.10;98.11;100186.53;4929800;29;20064;-84
2024/01/22 08:50:59;;;;;;;1.35;1.00;;;;;;;11.16;97.94;100185.03;4911491;29;20114;-82
2024/01/22 08:53:55;;;;;;;1.83;1.20;;;;;;;11.19;97.46;100163.75;4934900;29;20072;-82
2024/01/22 08:56:42;;;;;;;1.92;1.13;;;;;;;11.27;96.72;100176.78;4958552;28;20459;-82
2024/01/22 09:02:45;;;;;;;2.03;1.30;;;;;;;11.39;95.33;100159.69;4985531;28;20046;-82
2024/01/22 09:09:09;;;;;;;4.55;1.77;;;;;;;11.69;93.09;100151.97;4993029;28;20401;-83
2024/01/22 09:12:23;;;;;;;;;;;;;;;;;;;;;
2024/01/22 09:14:51;;;;;;;5.68;2.45;;;;;;;11.90;90.89;100152.97;5002329;28;20051;-83
2024/01/22 09:17:18;;;;;;;6.90;2.33;;;;;;;12.03;90.04;100160.25;5004265;28;20050;-84
2024/01/22 09:19:45;;;;;;;5.10;2.38;;;;;;;11.99;89.79;100158.16;5013438;28;20057;-85
2024/01/22 09:22:12;;;;;;;8.93;2.85;;;;;;;12.05;89.57;100142.53;5043078;28;20060;-83
2024/01/22 09:24:45;;;;;;;7.32;2.60;;;;;;;12.14;88.87;100138.84;5049061;28;20053;-83
2024/01/22 09:27:11;;;;;;;7.45;3.00;;;;;;;12.20;88.41;100135.53;5030883;28;20122;-82
2024/01/22 09:29:38;;;;;;;7.25;2.88;;;;;;;12.36;88.22;100145.03;5039631;28;20052;-83
2024/01/22 09:32:08;;;;;;;6.75;2.63;;;;;;;12.40;88.23;100137.59;5031744;28;20080;-82
2024/01/22 09:34:58;;;;;;;6.43;2.97;;;;;;;12.44;87.53;100146.75;5034162;28;20053;-83
2024/01/22 09:38:01;;;;;;;9.93;3.47;;;;;;;12.51;87.36;100129.28;5022840;28;20054;-82
2024/01/22 09:41:09;;;;;;;7.57;3.10;;;;;;;12.54;87.23;100144.69;5037105;28;20088;-80
2024/01/22 09:47:11;;;;;;;10.05;3.85;;;;;;;12.58;87.16;100152.00;5020559;28;20050;-80
2024/01/22 09:53:35;;;;;;;9.63;3.13;;;;;;;12.71;86.88;100154.03;4960826;28;20055;-82
2024/01/22 09:59:42;;;;;;;7.00;2.70;;;;;;;12.77;85.99;100128.81;4956494;29;20170;-81
2024/01/22 10:09:29;;;;;;;8.57;3.08;;;;;;;12.82;85.33;100137.78;4884935;29;20057;-83
2024/01/22 10:15:51;;;;;;;6.93;2.47;;;;;;;12.83;85.03;100113.16;4884916;29;20504;-82
2024/01/22 10:18:40;;;;;;;8.40;2.80;;;;;;;12.90;85.12;100135.06;4879925;29;20060;-81
2024/01/22 10:24:07;;;;;;;8.52;2.58;;;;;;;12.84;85.08;100109.53;4990498;28;20045;-82
2024/01/22 10:27:27;;;;;;;7.40;1.80;;;;;;;12.77;85.36;100132.25;5029238;28;20044;-82
2024/01/22 10:33:50;;;;;;;6.30;1.90;;;;;;;12.84;85.51;100099.03;5026099;28;20481;-83
2024/01/22 10:36:37;;;;;;;4.05;1.83;;;;;;;12.95;85.25;100101.19;5034096;28;20209;-82
2024/01/22 10:39:20;;;;;;;4.07;1.60;;;;;;;13.00;85.10;100115.59;5024623;28;20050;-82
2024/01/22 10:42:14;;;;;;;6.50;1.45;;;;;;;13.02;85.20;100134.59;5031456;28;20054;-82
2024/01/22 10:44:57;;;;;;;4.07;1.52;;;;;;;13.06;85.03;100128.81;5028656;28;20046;-83
2024/01/22 10:54:49;;;;;;;4.60;1.77;;;;;;;12.98;85.17;100105.25;5017894;28;20500;-80
2024/01/22 10:57:39;;;;;;;1.63;0.98;;;;;;;13.01;85.51;100125.09;5028872;28;20471;-83
2024/01/22 11:07:11;;;;;;;1.60;1.38;;;;;;;12.56;87.54;100132.19;4977111;28;20055;-82
2024/01/22 11:09:44;;;;;;;2.03;0.95;;;;;;;12.55;88.32;100133.19;4979459;28;20067;-81
2024/01/22 11:12:25;;;;;;;2.53;1.20;;;;;;;12.54;88.58;100123.69;5022180;28;20054;-81
2024/01/22 11:14:55;;;;;;;3.83;0.93;;;;;;;12.51;88.94;100137.16;5030224;28;20062;-82
2024/01/22 11:17:30;;;;;;;1.08;0.68;;;;;;;12.49;89.01;100142.59;5021689;28;20046;-83
2024/01/22 11:20:20;;;;;;;0.93;0.68;;;;;;;12.26;89.59;100121.69;5025077;28;20045;-83
2024/01/22 11:23:24;;;;;;;2.72;0.80;;;;;;;12.41;90.11;100144.47;5030540;28;20041;-83
2024/01/22 11:26:11;;;;;;;1.98;0.80;;;;;;;12.24;90.35;100122.88;5021231;28;20128;-82
2024/01/22 11:41:50;;;;;;;0.90;0.60;;;;;;;11.93;91.65;100128.22;4991269;28;20054;-83
2024/01/22 11:44:20;;;;;;;1.10;0.77;;;;;;;11.91;91.66;100140.69;5042473;28;20054;-82
2024/01/22 11:47:09;;;;;;;0.70;0.57;;;;;;;11.83;91.96;100131.06;5041846;28;20046;-83
2024/01/22 11:49:59;;;;;;;2.42;0.88;;;;;;;11.88;91.58;100133.97;5043924;28;20133;-82
2024/01/22 11:53:01;;;;;;;2.70;0.80;;;;;;;11.89;91.32;100124.31;5036144;28;20060;-83
2024/01/22 11:55:32;;;;;;;3.73;1.37;;;;;;;11.84;91.64;100129.25;5032703;28;20057;-82
2024/01/22 11:58:20;;;;;;;2.92;1.38;;;;;;;11.92;91.59;100134.44;5024843;28;20045;-82
2024/01/22 12:00:55;;;;;;;4.43;2.13;;;;;;;11.87;91.63;100142.84;5017700;28;20053;-83
2024/01/22 12:03:31;;;;;;;4.00;1.42;;;;;;;11.99;91.68;100151.09;5016794;28;20428;-84
2024/01/22 12:06:14;;;;;;;8.10;2.33;;;;;;;12.03;91.43;100152.38;5028632;28;20499;-83
2024/01/22 12:09:08;;;;;;;8.82;2.45;;;;;;;12.00;92.34;100175.53;5034691;28;20049;-83
2024/01/22 12:11:52;;;;;;;4.38;1.92;;;;;;;11.65;95.87;100180.34;5033125;28;20144;-83
2024/01/22 12:14:19;;;;;;;4.90;1.95;;;;;;;11.20;96.64;100184.53;5016368;28;20455;-82
2024/01/22 12:17:03;;;;;;;7.13;2.20;;;;;;;11.21;97.48;100193.19;5023674;28;20140;-82
2024/01/22 12:19:53;;;;;;;5.18;1.58;;;;;;;11.27;97.77;100177.63;5023831;28;20513;-83
2024/01/22 12:22:28;;;;;;;7.50;2.13;;;;;;;11.27;97.92;100182.03;5031330;28;20080;-83
2024/01/22 12:25:13;;;;;;;8.93;2.63;;;;;;;11.55;95.41;100183.19;5015986;28;20049;-83
2024/01/22 12:27:45;;;;;;;4.57;2.03;;;;;;;11.44;93.50;100167.84;5015527;28;20060;-83
2024/01/22 12:30:27;;;;;;;4.72;1.92;;;;;;;11.53;92.83;100166.81;5029287;28;20053;-82
2024/01/22 12:36:29;;;;;;;6.80;2.65;;;;;;;11.81;92.43;100182.88;5004742;28;20120;-82
2024/01/22 12:39:25;;;;;;;8.00;2.60;;;;;;;11.98;91.96;100194.06;5032058;28;20085;-83
2024/01/22 12:42:40;;;;;;;10.75;3.50;;;;;;;11.97;90.94;100168.81;5020545;28;20073;-83
2024/01/22 12:45:59;;;;;;;6.80;2.67;;;;;;;12.14;89.96;100186.06;5031730;28;20053;-81
2024/01/22 12:49:19;;;;;;;12.02;4.05;;;;;;;12.17;88.94;100183.09;4980471;28;20103;-80
2024/01/22 13:12:19;;;;;;;15.50;3.75;;;;;;;12.06;83.47;100204.47;4852054;29;20086;-82
2024/01/22 13:18:59;;;;;;;;;;;;;;;12.07;83.06;100200.88;4804717;29;20070;-82
2024/01/22 13:21:27;;;;;;;11.52;3.85;;;;;;;12.01;82.84;100196.31;4934626;23;19920;-77
2024/01/22 13:23:54;;;;;;;12.68;4.18;;;;;;;11.89;81.09;100197.72;5036668;28;20487;-75
2024/01/22 13:26:20;;;;;;;12.60;4.03;;;;;;;11.86;81.14;100200.69;5037173;28;20135;-80
2024/01/22 13:28:47;;;;;;;20.73;5.30;;;;;;;11.68;80.37;100206.19;5038972;28;20132;-79
2024/01/22 13:31:14;;;;;;;14.13;4.40;;;;;;;11.57;80.16;100204.78;5030356;28;20370;-78
2024/01/22 13:33:40;;;;;;;17.85;4.10;;;;;;;11.47;80.57;100209.41;5013346;28;20054;-79
2024/01/22 13:36:08;;;;;;;17.15;3.85;;;;;;;11.45;80.06;100214.00;5008766;28;20461;-79
2024/01/22 13:38:38;;;;;;;13.13;3.65;;;;;;;11.43;78.68;100212.56;5014775;28;20129;-79
2024/01/22 13:41:05;;;;;;;10.38;3.90;;;;;;;11.32;76.67;100174.47;5010661;28;20523;-79
2024/01/22 13:43:32;;;;;;;8.25;2.92;;;;;;;11.29;72.84;100143.41;5017934;28;20104;-79
2024/01/22 13:45:58;;;;;;;5.53;2.65;;;;;;;11.22;70.76;100132.78;5011458;28;20129;-79
2024/01/22 13:48:25;;;;;;;10.30;2.97;;;;;;;11.14;71.19;100158.19;5015876;28;20079;-79
2024/01/22 13:50:52;;;;;;;14.40;3.45;;;;;;;11.05;72.97;100195.88;5005275;28;20129;-78
2024/01/22 13:53:19;;;;;;;14.35;3.50;;;;;;;11.04;74.24;100205.53;4999798;28;20065;-79
2024/01/22 13:55:48;;;;;;;14.50;3.83;;;;;;;11.09;75.59;100225.97;4996714;28;20046;-79
2024/01/22 13:58:14;;;;;;;14.10;4.35;;;;;;;11.04;76.82;100247.41;5004768;28;20144;-79
2024/01/22 14:01:35;;;;;;;11.15;3.35;;;;;;;11.04;77.96;100254.44;5083153;23;20026;-78
2024/01/22 14:04:02;;;;;;;14.77;3.92;;;;;;;10.79;79.60;100258.94;4950170;29;20067;-79
2024/01/22 14:06:28;;;;;;;14.70;4.10;;;;;;;10.82;80.36;100282.97;4949119;29;20051;-79
2024/01/22 14:08:58;;;;;;;10.98;2.97;;;;;;;10.77;81.16;100285.28;4985679;28;20089;-79
2024/01/22 14:11:26;;;;;;;9.88;3.22;;;;;;;10.65;81.40;100244.72;5021765;28;20073;-78
2024/01/22 14:32:59;;;;;;;17.90;4.22;;;;;;;10.91;84.59;100317.78;4886297;29;20451;-82
2024/01/22 14:46:41;;;;;;;;;;;;;;;;;;;;;
2024/01/22 14:53:50;;;;;;;20.40;5.55;;;;;;;10.80;83.61;100318.97;4843591;29;20050;-86
2024/01/22 15:00:50;;;;;;;21.45;5.63;;;;;;;10.81;85.69;100335.50;4862005;29;20054;-83
2024/01/22 15:38:12;;;;;;;20.85;5.18;;;;;;;10.14;82.80;100332.13;4728266;30;20056;-83
2024/01/22 15:58:52;;;;;;;21.52;5.95;;;;;;;9.11;93.96;100403.66;4690877;30;20057;-84
2024/01/22 16:08:40;;;;;;;32.58;6.70;;;;;;;8.96;96.27;100438.13;4804924;29;20063;-83
2024/01/22 16:36:03;;;;;;;23.30;6.20;;;;;;;9.29;89.22;100428.75;5024851;23;20049;-83
2024/01/22 17:22:12;;;;;;;15.10;3.90;;;;;;;8.93;87.20;100553.25;5015765;23;20049;-78
2024/01/22 17:24:38;;;;;;;14.43;4.38;;;;;;;8.91;87.60;100565.63;5033734;28;20145;-78
2024/01/22 17:27:05;;;;;;;14.45;4.38;;;;;;;8.82;87.36;100563.91;5030362;28;20055;-78
2024/01/22 17:29:32;;;;;;;17.90;4.22;;;;;;;8.72;87.96;100584.00;5032987;28;20085;-78
2024/01/22 17:31:58;;;;;;;18.80;4.63;;;;;;;8.77;87.92;100588.78;5017079;28;20132;-79
2024/01/22 17:34:25;;;;;;;19.38;4.60;;;;;;;8.72;87.82;100591.81;5006859;28;20133;-78
2024/01/22 17:36:51;;;;;;;17.38;4.35;;;;;;;8.71;88.24;100610.22;5006274;28;20076;-77